createdAt,value
2022-12-26T00:01:01.609Z,10.26
2022-12-26T00:06:03.776Z,9.96
2022-12-26T00:11:06.848Z,10.23
2022-12-26T00:16:10.201Z,9.92
2022-12-26T00:21:14.090Z,9.70
2022-12-26T00:26:19.013Z,9.92
2022-12-26T00:31:23.090Z,9.75
2022-12-26T00:36:26.576Z,9.83
2022-12-26T00:41:30.250Z,9.80
2022-12-26T00:46:31.982Z,9.72
2022-12-26T00:51:33.657Z,9.71
2022-12-26T00:56:36.648Z,9.86
2022-12-26T01:01:38.431Z,9.80
2022-12-26T01:06:40.303Z,9.72
2022-12-26T01:11:44.604Z,9.67
2022-12-26T01:16:46.821Z,9.72
2022-12-26T01:21:48.638Z,9.75
2022-12-26T01:26:51.730Z,9.80
2022-12-26T01:31:53.552Z,9.96
2022-12-26T01:36:55.202Z,9.79
2022-12-26T01:41:58.314Z,9.83
2022-12-26T01:47:00.240Z,9.76
2022-12-26T01:52:05.923Z,9.47
2022-12-26T01:57:12.745Z,9.55
2022-12-26T02:02:16.911Z,9.67
2022-12-26T02:07:18.965Z,9.57
2022-12-26T02:12:37.586Z,9.60
2022-12-26T02:17:42.216Z,9.53
2022-12-26T02:23:17.737Z,9.76
2022-12-26T02:28:44.884Z,9.68
2022-12-26T02:34:00.477Z,9.82
2022-12-26T02:39:44.614Z,9.65
2022-12-26T02:44:43.596Z,9.57
2022-12-26T02:50:02.019Z,9.66
2022-12-26T02:55:09.870Z,9.66
2022-12-26T03:00:15.864Z,9.70
2022-12-26T03:05:26.309Z,9.91
2022-12-26T03:10:31.853Z,9.74
2022-12-26T03:15:37.480Z,9.68
2022-12-26T03:20:41.066Z,9.77
2022-12-26T03:25:46.573Z,9.60
2022-12-26T03:30:48.432Z,9.65
2022-12-26T03:35:52.119Z,9.67
2022-12-26T03:41:02.585Z,9.37
2022-12-26T03:46:17.464Z,9.26
2022-12-26T03:51:31.115Z,9.28
2022-12-26T03:56:37.712Z,9.24
2022-12-26T04:01:42.635Z,9.33
2022-12-26T04:06:51.481Z,9.07
2022-12-26T04:11:55.093Z,9.37
2022-12-26T04:17:03.110Z,9.35
2022-12-26T04:22:10.677Z,9.46
2022-12-26T04:27:15.347Z,9.42
2022-12-26T04:32:24.882Z,9.50
2022-12-26T04:37:29.297Z,9.53
2022-12-26T04:42:32.742Z,9.49
2022-12-26T04:47:34.467Z,9.33
2022-12-26T04:52:37.790Z,9.53
2022-12-26T04:57:39.480Z,9.50
2022-12-26T05:02:41.361Z,9.42
2022-12-26T05:07:44.650Z,9.41
2022-12-26T05:12:46.308Z,9.46
2022-12-26T05:17:48.254Z,9.63
2022-12-26T05:22:52.655Z,9.69
2022-12-26T05:27:54.357Z,9.69
2022-12-26T05:32:56.151Z,9.46
2022-12-26T05:37:59.287Z,9.45
2022-12-26T05:43:00.997Z,9.58
2022-12-26T05:48:02.537Z,9.72
2022-12-26T05:53:05.861Z,9.75
2022-12-26T05:58:07.720Z,9.71
2022-12-26T06:03:09.648Z,9.54
2022-12-26T06:08:12.815Z,9.42
2022-12-26T06:13:14.935Z,9.64
2022-12-26T06:18:16.753Z,9.63
2022-12-26T06:23:20.129Z,9.81
2022-12-26T06:28:22.351Z,9.59
2022-12-26T06:33:24.093Z,9.73
2022-12-26T06:38:27.493Z,9.58
2022-12-26T06:43:29.375Z,9.55
2022-12-26T06:48:32.238Z,9.50
2022-12-26T06:53:35.690Z,9.33
2022-12-26T06:59:02.075Z,9.17
2022-12-26T07:04:43.973Z,9.16
2022-12-26T07:09:52.072Z,8.87
2022-12-26T07:14:59.714Z,8.93
2022-12-26T07:20:03.904Z,8.99
2022-12-26T07:25:08.057Z,8.59
2022-12-26T07:30:10.856Z,8.46
2022-12-26T07:35:12.769Z,8.15
2022-12-26T07:40:16.236Z,8.11
2022-12-26T07:45:17.869Z,7.93
2022-12-26T07:50:20.076Z,7.64
2022-12-26T07:55:23.312Z,7.36
2022-12-26T08:00:25.130Z,7.27
2022-12-26T08:05:26.782Z,7.32
2022-12-26T08:10:29.733Z,7.42
2022-12-26T08:15:32.044Z,7.83
2022-12-26T08:20:33.900Z,8.59
2022-12-26T08:25:37.444Z,9.98
2022-12-26T08:30:40.279Z,9.17
2022-12-26T08:35:42.022Z,9.55
2022-12-26T08:40:45.157Z,10.94
2022-12-26T08:45:47.114Z,8.93
2022-12-26T08:50:48.794Z,8.27
2022-12-26T08:55:52.622Z,8.23
2022-12-26T09:00:55.603Z,8.35
2022-12-26T09:06:04.063Z,8.23
2022-12-26T09:11:11.508Z,8.33
2022-12-26T09:16:15.052Z,8.51
2022-12-26T09:21:16.620Z,8.66
2022-12-26T09:26:20.550Z,8.65
2022-12-26T09:31:23.926Z,8.68
2022-12-26T09:36:28.254Z,8.57
2022-12-26T09:41:50.591Z,8.65
2022-12-26T09:47:03.839Z,8.65
2022-12-26T09:52:11.510Z,8.67
2022-12-26T09:57:18.294Z,8.66
2022-12-26T10:02:22.791Z,8.78
2022-12-26T10:07:29.124Z,8.76
2022-12-26T10:12:45.873Z,8.89
2022-12-26T10:17:53.496Z,8.96
2022-12-26T10:23:22.384Z,8.98
2022-12-26T10:28:32.254Z,9.01
2022-12-26T10:33:41.943Z,9.12
2022-12-26T10:38:46.880Z,9.28
2022-12-26T10:43:50.060Z,9.09
2022-12-26T10:48:51.839Z,8.97
2022-12-26T10:53:54.411Z,9.03
2022-12-26T10:59:03.982Z,9.03
2022-12-26T11:04:14.187Z,9.14
2022-12-26T11:09:44.094Z,9.10
2022-12-26T11:14:47.457Z,9.25
2022-12-26T11:19:49.045Z,9.21
2022-12-26T11:25:17.915Z,9.24
2022-12-26T11:30:30.047Z,9.20
2022-12-26T11:35:32.503Z,9.27
2022-12-26T11:40:37.068Z,9.26
2022-12-26T11:45:48.982Z,9.05
2022-12-26T11:50:52.134Z,9.04
2022-12-26T11:55:59.411Z,8.94
2022-12-26T12:01:15.626Z,8.92
2022-12-26T12:06:41.410Z,8.33
2022-12-26T12:11:53.095Z,8.20
2022-12-26T12:17:12.101Z,8.33
2022-12-26T12:22:30.868Z,8.37
2022-12-26T12:27:38.840Z,8.39
2022-12-26T12:33:01.012Z,8.34
2022-12-26T12:38:22.106Z,8.47
2022-12-26T12:43:31.313Z,8.55
2022-12-26T12:48:49.164Z,8.47
2022-12-26T12:54:21.391Z,8.45
2022-12-26T12:59:36.921Z,8.41
2022-12-26T13:04:43.300Z,8.39
2022-12-26T13:09:49.381Z,8.38
2022-12-26T13:14:55.491Z,8.46
2022-12-26T13:20:03.304Z,8.44
2022-12-26T13:25:05.314Z,8.43
2022-12-26T13:30:13.050Z,8.25
2022-12-26T13:35:50.940Z,8.16
2022-12-26T13:40:58.156Z,8.12
2022-12-26T13:45:59.870Z,7.98
2022-12-26T13:51:03.786Z,8.11
2022-12-26T13:56:34.898Z,7.97
2022-12-26T14:01:46.617Z,8.03
2022-12-26T14:07:07.392Z,7.87
2022-12-26T14:12:29.760Z,7.84
2022-12-26T14:17:41.030Z,7.90
2022-12-26T14:22:52.542Z,7.87
2022-12-26T14:28:05.268Z,7.79
2022-12-26T14:33:24.520Z,7.94
2022-12-26T14:38:38.457Z,7.87
2022-12-26T14:43:42.139Z,7.78
2022-12-26T14:48:54.751Z,7.89
2022-12-26T14:54:37.686Z,7.74
2022-12-26T14:59:41.096Z,7.77
2022-12-26T15:04:53.021Z,7.62
2022-12-26T15:10:19.058Z,7.62
2022-12-26T15:15:32.378Z,7.95
2022-12-26T15:20:59.693Z,7.71
2022-12-26T15:26:16.956Z,7.74
2022-12-26T15:31:36.104Z,7.72
2022-12-26T15:36:46.496Z,7.70
2022-12-26T15:41:55.035Z,7.76
2022-12-26T15:47:13.715Z,7.73
2022-12-26T15:52:23.863Z,7.66
2022-12-26T15:57:34.558Z,7.67
2022-12-26T16:02:43.417Z,7.60
2022-12-26T16:07:53.070Z,7.59
2022-12-26T16:13:14.445Z,7.73
2022-12-26T16:18:19.763Z,6.33
2022-12-26T16:23:24.997Z,5.33
2022-12-26T16:28:35.727Z,5.26
2022-12-26T16:33:41.280Z,5.18
2022-12-26T16:38:44.163Z,5.11
2022-12-26T16:43:48.623Z,5.25
2022-12-26T16:48:57.232Z,5.13
2022-12-26T16:54:15.204Z,5.32
2022-12-26T16:59:19.957Z,5.45
2022-12-26T17:04:24.740Z,5.61
2022-12-26T17:09:28.891Z,5.55
2022-12-26T17:14:34.489Z,5.69
2022-12-26T17:19:37.615Z,5.65
2022-12-26T17:24:39.499Z,5.46
2022-12-26T17:29:48.154Z,5.18
2022-12-26T17:34:51.267Z,5.04
2022-12-26T17:40:02.466Z,4.80
2022-12-26T17:45:05.984Z,4.65
2022-12-26T17:50:16.566Z,4.52
2022-12-26T17:55:32.287Z,4.42
2022-12-26T18:00:48.787Z,4.31
2022-12-26T18:06:11.198Z,4.28
2022-12-26T18:11:16.877Z,4.23
2022-12-26T18:16:20.218Z,4.27
2022-12-26T18:21:28.115Z,4.16
2022-12-26T18:26:47.048Z,4.06
2022-12-26T18:31:48.993Z,4.03
2022-12-26T18:36:52.128Z,3.84
2022-12-26T18:41:59.505Z,3.83
2022-12-26T18:58:26.268Z,3.66
2022-12-26T19:03:31.665Z,3.50
2022-12-26T19:08:51.199Z,3.51
2022-12-26T19:14:20.965Z,3.74
2022-12-26T19:19:53.560Z,3.62
2022-12-26T19:25:24.897Z,3.68
2022-12-26T19:30:52.041Z,3.70
2022-12-26T19:36:23.570Z,3.48
2022-12-26T19:41:55.657Z,3.48
2022-12-26T19:53:50.289Z,3.34
2022-12-26T20:00:06.266Z,3.41
2022-12-26T20:10:40.143Z,3.49
2022-12-26T20:15:43.183Z,3.57
2022-12-26T20:20:52.249Z,3.52
2022-12-26T20:25:53.825Z,3.24
2022-12-26T20:31:01.180Z,3.19
2022-12-26T20:36:04.580Z,3.02
2022-12-26T20:41:07.136Z,3.08
2022-12-26T20:46:13.326Z,2.98
2022-12-26T20:51:16.829Z,2.73
2022-12-26T20:56:18.899Z,2.50
2022-12-26T21:01:23.028Z,2.45
2022-12-26T21:06:28.012Z,2.38
2022-12-26T21:11:31.492Z,2.30
2022-12-26T21:16:36.614Z,2.17
2022-12-26T21:21:39.555Z,2.11
2022-12-26T21:26:42.195Z,2.13
2022-12-26T21:31:46.396Z,2.25
2022-12-26T21:36:48.254Z,2.05
2022-12-26T21:41:49.803Z,2.28
2022-12-26T21:46:52.825Z,2.08
2022-12-26T21:51:54.410Z,2.03
2022-12-26T21:56:55.969Z,2.03
2022-12-26T22:01:59.324Z,1.94
2022-12-26T22:07:01.162Z,1.98
2022-12-26T22:12:03.749Z,2.13
2022-12-26T22:17:06.841Z,3.07
2022-12-26T22:22:08.609Z,3.99
2022-12-26T22:27:10.164Z,3.10
2022-12-26T22:32:13.104Z,1.57
2022-12-26T22:37:14.721Z,1.23
2022-12-26T22:42:16.400Z,1.07
2022-12-26T22:47:19.457Z,1.24
2022-12-26T22:52:20.990Z,1.23
2022-12-26T22:57:22.480Z,1.07
2022-12-26T23:02:25.698Z,1.32
2022-12-26T23:07:27.942Z,1.04
2022-12-26T23:12:30.037Z,1.16
2022-12-26T23:17:38.105Z,1.12
2022-12-26T23:22:40.080Z,1.12
2022-12-26T23:27:41.834Z,1.32
2022-12-26T23:32:46.924Z,1.36
2022-12-26T23:37:48.940Z,1.39
2022-12-26T23:42:50.674Z,1.29
2022-12-26T23:47:53.801Z,1.30
2022-12-26T23:52:55.574Z,1.34
2022-12-26T23:58:09.022Z,1.04
